sensor_id;sensor_type;location;lat;lon;timestamp;P1;durP1;ratioP1;P2;durP2;ratioP2
13061;SDS011;6597;52.218;9.882;2023-11-19T00:01:32;2.43;;;1.00;;
13061;SDS011;6597;52.218;9.882;2023-11-19T00:03:59;2.33;;;1.03;;
13061;SDS011;6597;52.218;9.882;2023-11-19T00:06:25;2.87;;;1.00;;
13061;SDS011;6597;52.218;9.882;2023-11-19T00:08:52;5.33;;;1.40;;
13061;SDS011;6597;52.218;9.882;2023-11-19T00:11:19;2.57;;;1.00;;
13061;SDS011;6597;52.218;9.882;2023-11-19T00:13:46;1.03;;;0.73;;
13061;SDS011;6597;52.218;9.882;2023-11-19T00:16:12;2.23;;;1.00;;
13061;SDS011;6597;52.218;9.882;2023-11-19T00:18:40;2.00;;;1.00;;
13061;SDS011;6597;52.218;9.882;2023-11-19T00:21:07;2.67;;;1.10;;
13061;SDS011;6597;52.218;9.882;2023-11-19T00:23:35;1.73;;;0.80;;
13061;SDS011;6597;52.218;9.882;2023-11-19T00:26:01;3.27;;;1.03;;
13061;SDS011;6597;52.218;9.882;2023-11-19T00:28:31;3.47;;;1.30;;
13061;SDS011;6597;52.218;9.882;2023-11-19T00:30:58;2.50;;;1.00;;
13061;SDS011;6597;52.218;9.882;2023-11-19T00:33:25;2.23;;;1.00;;
13061;SDS011;6597;52.218;9.882;2023-11-19T00:35:53;0.63;;;0.60;;
13061;SDS011;6597;52.218;9.882;2023-11-19T00:38:21;2.97;;;1.20;;
13061;SDS011;6597;52.218;9.882;2023-11-19T00:40:47;2.47;;;1.10;;
13061;SDS011;6597;52.218;9.882;2023-11-19T00:43:14;0.57;;;0.57;;
13061;SDS011;6597;52.218;9.882;2023-11-19T00:45:41;2.60;;;1.20;;
13061;SDS011;6597;52.218;9.882;2023-11-19T00:48:08;0.87;;;0.50;;
13061;SDS011;6597;52.218;9.882;2023-11-19T00:50:35;2.23;;;1.10;;
13061;SDS011;6597;52.218;9.882;2023-11-19T00:53:02;2.77;;;1.10;;
13061;SDS011;6597;52.218;9.882;2023-11-19T00:55:29;2.97;;;1.00;;
13061;SDS011;6597;52.218;9.882;2023-11-19T00:57:55;0.97;;;0.70;;
13061;SDS011;6597;52.218;9.882;2023-11-19T01:00:22;2.47;;;1.10;;
13061;SDS011;6597;52.218;9.882;2023-11-19T01:02:49;2.63;;;1.10;;
13061;SDS011;6597;52.218;9.882;2023-11-19T01:05:16;1.10;;;0.70;;
13061;SDS011;6597;52.218;9.882;2023-11-19T01:07:46;2.57;;;1.10;;
13061;SDS011;6597;52.218;9.882;2023-11-19T01:10:14;1.77;;;1.07;;
13061;SDS011;6597;52.218;9.882;2023-11-19T01:12:41;1.80;;;0.90;;
13061;SDS011;6597;52.218;9.882;2023-11-19T01:15:08;1.47;;;0.87;;
13061;SDS011;6597;52.218;9.882;2023-11-19T01:17:36;1.50;;;0.90;;
13061;SDS011;6597;52.218;9.882;2023-11-19T01:20:03;1.40;;;0.80;;
13061;SDS011;6597;52.218;9.882;2023-11-19T01:22:32;2.43;;;1.27;;
13061;SDS011;6597;52.218;9.882;2023-11-19T01:24:59;1.93;;;1.00;;
13061;SDS011;6597;52.218;9.882;2023-11-19T01:27:27;1.50;;;0.97;;
13061;SDS011;6597;52.218;9.882;2023-11-19T01:29:53;2.40;;;1.27;;
13061;SDS011;6597;52.218;9.882;2023-11-19T01:32:21;1.67;;;1.03;;
13061;SDS011;6597;52.218;9.882;2023-11-19T01:34:49;2.77;;;1.00;;
13061;SDS011;6597;52.218;9.882;2023-11-19T01:37:15;1.77;;;1.03;;
13061;SDS011;6597;52.218;9.882;2023-11-19T01:39:43;1.30;;;1.00;;
13061;SDS011;6597;52.218;9.882;2023-11-19T01:42:10;1.47;;;1.00;;
13061;SDS011;6597;52.218;9.882;2023-11-19T01:44:38;2.50;;;1.40;;
13061;SDS011;6597;52.218;9.882;2023-11-19T01:47:05;1.73;;;0.93;;
13061;SDS011;6597;52.218;9.882;2023-11-19T01:49:32;1.43;;;0.83;;
13061;SDS011;6597;52.218;9.882;2023-11-19T01:51:59;2.00;;;1.20;;
13061;SDS011;6597;52.218;9.882;2023-11-19T01:54:26;0.73;;;0.60;;
13061;SDS011;6597;52.218;9.882;2023-11-19T01:56:54;1.70;;;1.00;;
13061;SDS011;6597;52.218;9.882;2023-11-19T01:59:23;1.97;;;0.90;;
13061;SDS011;6597;52.218;9.882;2023-11-19T02:01:53;1.70;;;1.00;;
13061;SDS011;6597;52.218;9.882;2023-11-19T02:04:20;2.13;;;1.10;;
13061;SDS011;6597;52.218;9.882;2023-11-19T02:06:47;1.77;;;1.00;;
13061;SDS011;6597;52.218;9.882;2023-11-19T02:09:17;2.03;;;1.10;;
13061;SDS011;6597;52.218;9.882;2023-11-19T02:11:44;1.70;;;1.10;;
13061;SDS011;6597;52.218;9.882;2023-11-19T02:14:14;2.00;;;1.20;;
13061;SDS011;6597;52.218;9.882;2023-11-19T02:16:41;1.50;;;0.90;;
13061;SDS011;6597;52.218;9.882;2023-11-19T02:19:09;1.70;;;1.10;;
13061;SDS011;6597;52.218;9.882;2023-11-19T02:21:36;4.27;;;1.10;;
13061;SDS011;6597;52.218;9.882;2023-11-19T02:24:03;2.07;;;1.00;;
13061;SDS011;6597;52.218;9.882;2023-11-19T02:26:36;1.80;;;1.00;;
13061;SDS011;6597;52.218;9.882;2023-11-19T02:29:07;2.33;;;1.00;;
13061;SDS011;6597;52.218;9.882;2023-11-19T02:31:34;1.70;;;0.93;;
13061;SDS011;6597;52.218;9.882;2023-11-19T02:34:01;1.63;;;0.87;;
13061;SDS011;6597;52.218;9.882;2023-11-19T02:36:28;0.83;;;0.67;;
13061;SDS011;6597;52.218;9.882;2023-11-19T02:38:55;2.40;;;1.10;;
13061;SDS011;6597;52.218;9.882;2023-11-19T02:41:21;2.53;;;1.10;;
13061;SDS011;6597;52.218;9.882;2023-11-19T02:43:48;1.20;;;0.70;;
13061;SDS011;6597;52.218;9.882;2023-11-19T02:46:16;1.57;;;0.90;;
13061;SDS011;6597;52.218;9.882;2023-11-19T02:48:42;2.23;;;1.00;;
13061;SDS011;6597;52.218;9.882;2023-11-19T02:51:09;2.20;;;1.00;;
13061;SDS011;6597;52.218;9.882;2023-11-19T02:53:36;0.60;;;0.47;;
13061;SDS011;6597;52.218;9.882;2023-11-19T02:56:05;1.93;;;1.00;;
13061;SDS011;6597;52.218;9.882;2023-11-19T02:58:40;1.47;;;0.90;;
13061;SDS011;6597;52.218;9.882;2023-11-19T03:01:10;1.90;;;1.00;;
13061;SDS011;6597;52.218;9.882;2023-11-19T03:03:45;1.57;;;0.80;;
13061;SDS011;6597;52.218;9.882;2023-11-19T03:06:14;1.33;;;0.80;;
13061;SDS011;6597;52.218;9.882;2023-11-19T03:08:41;1.80;;;1.00;;
13061;SDS011;6597;52.218;9.882;2023-11-19T03:11:07;2.57;;;1.03;;
13061;SDS011;6597;52.218;9.882;2023-11-19T03:13:34;1.67;;;1.00;;
13061;SDS011;6597;52.218;9.882;2023-11-19T03:16:01;1.37;;;0.90;;
13061;SDS011;6597;52.218;9.882;2023-11-19T03:18:27;2.57;;;1.00;;
13061;SDS011;6597;52.218;9.882;2023-11-19T03:20:55;1.57;;;0.90;;
13061;SDS011;6597;52.218;9.882;2023-11-19T03:23:22;0.77;;;0.60;;
13061;SDS011;6597;52.218;9.882;2023-11-19T03:25:49;1.60;;;1.10;;
13061;SDS011;6597;52.218;9.882;2023-11-19T03:28:16;2.13;;;1.00;;
13061;SDS011;6597;52.218;9.882;2023-11-19T03:30:42;2.70;;;1.07;;
13061;SDS011;6597;52.218;9.882;2023-11-19T03:33:09;1.37;;;0.83;;
13061;SDS011;6597;52.218;9.882;2023-11-19T03:35:35;2.17;;;1.20;;
13061;SDS011;6597;52.218;9.882;2023-11-19T03:38:03;2.90;;;1.10;;
13061;SDS011;6597;52.218;9.882;2023-11-19T03:40:30;2.10;;;1.03;;
13061;SDS011;6597;52.218;9.882;2023-11-19T03:42:56;0.90;;;0.70;;
13061;SDS011;6597;52.218;9.882;2023-11-19T03:45:23;2.33;;;1.00;;
13061;SDS011;6597;52.218;9.882;2023-11-19T03:47:50;5.10;;;1.10;;
13061;SDS011;6597;52.218;9.882;2023-11-19T03:50:17;1.40;;;0.80;;
13061;SDS011;6597;52.218;9.882;2023-11-19T03:52:45;3.57;;;1.30;;
13061;SDS011;6597;52.218;9.882;2023-11-19T03:55:13;2.37;;;1.20;;
13061;SDS011;6597;52.218;9.882;2023-11-19T03:57:39;4.30;;;1.20;;
13061;SDS011;6597;52.218;9.882;2023-11-19T04:00:06;0.77;;;0.77;;
13061;SDS011;6597;52.218;9.882;2023-11-19T04:02:38;3.53;;;1.20;;
13061;SDS011;6597;52.218;9.882;2023-11-19T04:05:05;2.87;;;1.33;;
13061;SDS011;6597;52.218;9.882;2023-11-19T04:07:32;2.40;;;1.10;;
13061;SDS011;6597;52.218;9.882;2023-11-19T04:09:59;2.63;;;1.10;;
13061;SDS011;6597;52.218;9.882;2023-11-19T04:12:27;3.73;;;1.40;;
13061;SDS011;6597;52.218;9.882;2023-11-19T04:14:54;1.73;;;1.03;;
13061;SDS011;6597;52.218;9.882;2023-11-19T04:17:21;3.43;;;1.47;;
13061;SDS011;6597;52.218;9.882;2023-11-19T04:19:48;1.90;;;1.10;;
13061;SDS011;6597;52.218;9.882;2023-11-19T04:22:14;2.43;;;1.40;;
13061;SDS011;6597;52.218;9.882;2023-11-19T04:24:41;3.60;;;1.60;;
13061;SDS011;6597;52.218;9.882;2023-11-19T04:27:09;2.60;;;1.60;;
13061;SDS011;6597;52.218;9.882;2023-11-19T04:29:38;3.83;;;1.67;;
13061;SDS011;6597;52.218;9.882;2023-11-19T04:32:05;1.83;;;1.20;;
13061;SDS011;6597;52.218;9.882;2023-11-19T04:34:32;4.43;;;2.07;;
13061;SDS011;6597;52.218;9.882;2023-11-19T04:36:58;2.73;;;1.70;;
13061;SDS011;6597;52.218;9.882;2023-11-19T04:39:27;3.23;;;1.70;;
13061;SDS011;6597;52.218;9.882;2023-11-19T04:41:53;2.90;;;1.83;;
13061;SDS011;6597;52.218;9.882;2023-11-19T04:44:20;5.27;;;2.53;;
13061;SDS011;6597;52.218;9.882;2023-11-19T04:46:48;4.27;;;2.40;;
13061;SDS011;6597;52.218;9.882;2023-11-19T04:49:15;4.53;;;2.20;;
13061;SDS011;6597;52.218;9.882;2023-11-19T04:51:42;6.07;;;2.40;;
13061;SDS011;6597;52.218;9.882;2023-11-19T04:54:12;3.47;;;2.40;;
13061;SDS011;6597;52.218;9.882;2023-11-19T04:56:39;4.13;;;2.90;;
13061;SDS011;6597;52.218;9.882;2023-11-19T04:59:06;4.63;;;2.30;;
13061;SDS011;6597;52.218;9.882;2023-11-19T05:01:32;3.63;;;2.43;;
13061;SDS011;6597;52.218;9.882;2023-11-19T05:04:00;3.60;;;2.50;;
13061;SDS011;6597;52.218;9.882;2023-11-19T05:06:27;6.03;;;3.00;;
13061;SDS011;6597;52.218;9.882;2023-11-19T05:08:55;7.47;;;2.87;;
13061;SDS011;6597;52.218;9.882;2023-11-19T05:11:22;4.67;;;2.40;;
13061;SDS011;6597;52.218;9.882;2023-11-19T05:13:48;4.63;;;2.63;;
13061;SDS011;6597;52.218;9.882;2023-11-19T05:16:15;5.43;;;2.63;;
13061;SDS011;6597;52.218;9.882;2023-11-19T05:18:42;5.93;;;2.73;;
13061;SDS011;6597;52.218;9.882;2023-11-19T05:21:10;4.67;;;2.80;;
13061;SDS011;6597;52.218;9.882;2023-11-19T05:23:37;3.67;;;2.67;;
13061;SDS011;6597;52.218;9.882;2023-11-19T05:26:04;2.87;;;2.17;;
13061;SDS011;6597;52.218;9.882;2023-11-19T05:28:31;3.13;;;2.30;;
13061;SDS011;6597;52.218;9.882;2023-11-19T05:30:58;5.20;;;2.60;;
13061;SDS011;6597;52.218;9.882;2023-11-19T05:33:24;3.00;;;2.37;;
13061;SDS011;6597;52.218;9.882;2023-11-19T05:35:51;5.40;;;2.63;;
13061;SDS011;6597;52.218;9.882;2023-11-19T05:38:19;5.53;;;3.23;;
13061;SDS011;6597;52.218;9.882;2023-11-19T05:40:46;5.03;;;2.73;;
13061;SDS011;6597;52.218;9.882;2023-11-19T05:43:13;4.93;;;2.73;;
13061;SDS011;6597;52.218;9.882;2023-11-19T05:45:41;3.43;;;2.53;;
13061;SDS011;6597;52.218;9.882;2023-11-19T05:48:08;3.10;;;2.33;;
13061;SDS011;6597;52.218;9.882;2023-11-19T05:50:35;6.23;;;2.20;;
13061;SDS011;6597;52.218;9.882;2023-11-19T05:53:01;5.20;;;2.70;;
13061;SDS011;6597;52.218;9.882;2023-11-19T05:55:33;6.00;;;2.93;;
13061;SDS011;6597;52.218;9.882;2023-11-19T05:57:59;3.57;;;2.37;;
13061;SDS011;6597;52.218;9.882;2023-11-19T06:00:26;5.47;;;3.00;;
13061;SDS011;6597;52.218;9.882;2023-11-19T06:02:52;4.43;;;2.67;;
13061;SDS011;6597;52.218;9.882;2023-11-19T06:05:19;10.67;;;3.83;;
13061;SDS011;6597;52.218;9.882;2023-11-19T06:07:45;5.47;;;2.70;;
13061;SDS011;6597;52.218;9.882;2023-11-19T06:10:12;5.53;;;3.10;;
13061;SDS011;6597;52.218;9.882;2023-11-19T06:12:43;7.30;;;3.87;;
13061;SDS011;6597;52.218;9.882;2023-11-19T06:15:11;6.40;;;3.37;;
13061;SDS011;6597;52.218;9.882;2023-11-19T06:17:38;6.23;;;3.00;;
13061;SDS011;6597;52.218;9.882;2023-11-19T06:20:05;14.23;;;4.37;;
13061;SDS011;6597;52.218;9.882;2023-11-19T06:22:32;10.53;;;4.73;;
13061;SDS011;6597;52.218;9.882;2023-11-19T06:24:59;14.53;;;5.30;;
13061;SDS011;6597;52.218;9.882;2023-11-19T06:27:25;10.73;;;4.77;;
13061;SDS011;6597;52.218;9.882;2023-11-19T06:29:53;12.87;;;4.90;;
13061;SDS011;6597;52.218;9.882;2023-11-19T06:32:20;8.97;;;5.27;;
13061;SDS011;6597;52.218;9.882;2023-11-19T06:34:47;13.17;;;5.33;;
13061;SDS011;6597;52.218;9.882;2023-11-19T06:37:13;15.27;;;6.00;;
13061;SDS011;6597;52.218;9.882;2023-11-19T06:39:40;19.83;;;5.10;;
13061;SDS011;6597;52.218;9.882;2023-11-19T06:42:06;12.60;;;4.47;;
13061;SDS011;6597;52.218;9.882;2023-11-19T06:44:33;11.07;;;5.20;;
13061;SDS011;6597;52.218;9.882;2023-11-19T06:47:01;14.80;;;4.30;;
13061;SDS011;6597;52.218;9.882;2023-11-19T06:49:27;18.67;;;4.70;;
13061;SDS011;6597;52.218;9.882;2023-11-19T06:51:54;16.73;;;4.43;;
13061;SDS011;6597;52.218;9.882;2023-11-19T06:54:21;21.50;;;4.37;;
13061;SDS011;6597;52.218;9.882;2023-11-19T06:56:48;10.77;;;4.57;;
13061;SDS011;6597;52.218;9.882;2023-11-19T06:59:15;11.60;;;3.93;;
13061;SDS011;6597;52.218;9.882;2023-11-19T07:01:41;13.60;;;4.00;;
13061;SDS011;6597;52.218;9.882;2023-11-19T07:04:11;12.60;;;4.47;;
13061;SDS011;6597;52.218;9.882;2023-11-19T07:06:38;12.33;;;3.83;;
13061;SDS011;6597;52.218;9.882;2023-11-19T07:09:06;12.90;;;3.83;;
13061;SDS011;6597;52.218;9.882;2023-11-19T07:11:35;14.67;;;3.80;;
13061;SDS011;6597;52.218;9.882;2023-11-19T07:14:04;10.23;;;3.70;;
13061;SDS011;6597;52.218;9.882;2023-11-19T07:16:31;20.77;;;4.30;;
13061;SDS011;6597;52.218;9.882;2023-11-19T07:18:58;14.47;;;3.90;;
13061;SDS011;6597;52.218;9.882;2023-11-19T07:21:26;11.40;;;3.97;;
13061;SDS011;6597;52.218;9.882;2023-11-19T07:23:54;17.27;;;4.00;;
13061;SDS011;6597;52.218;9.882;2023-11-19T07:26:21;14.67;;;4.27;;
13061;SDS011;6597;52.218;9.882;2023-11-19T07:28:47;12.70;;;4.17;;
13061;SDS011;6597;52.218;9.882;2023-11-19T07:31:14;12.63;;;4.53;;
13061;SDS011;6597;52.218;9.882;2023-11-19T07:33:41;14.77;;;3.77;;
13061;SDS011;6597;52.218;9.882;2023-11-19T07:36:08;19.37;;;4.43;;
13061;SDS011;6597;52.218;9.882;2023-11-19T07:38:36;11.57;;;3.80;;
13061;SDS011;6597;52.218;9.882;2023-11-19T07:41:03;21.53;;;5.40;;
13061;SDS011;6597;52.218;9.882;2023-11-19T07:43:31;12.40;;;4.53;;
13061;SDS011;6597;52.218;9.882;2023-11-19T07:45:58;16.23;;;4.60;;
13061;SDS011;6597;52.218;9.882;2023-11-19T07:48:25;19.00;;;4.63;;
13061;SDS011;6597;52.218;9.882;2023-11-19T07:50:52;13.27;;;4.57;;
13061;SDS011;6597;52.218;9.882;2023-11-19T07:53:19;13.07;;;5.03;;
13061;SDS011;6597;52.218;9.882;2023-11-19T07:55:47;20.90;;;4.37;;
13061;SDS011;6597;52.218;9.882;2023-11-19T07:58:14;10.37;;;3.80;;
13061;SDS011;6597;52.218;9.882;2023-11-19T08:00:40;18.73;;;4.47;;
13061;SDS011;6597;52.218;9.882;2023-11-19T08:03:07;21.40;;;4.57;;
13061;SDS011;6597;52.218;9.882;2023-11-19T08:05:33;17.10;;;4.47;;
13061;SDS011;6597;52.218;9.882;2023-11-19T08:08:00;17.30;;;4.23;;
13061;SDS011;6597;52.218;9.882;2023-11-19T08:10:26;14.77;;;4.07;;
13061;SDS011;6597;52.218;9.882;2023-11-19T08:12:55;12.47;;;3.53;;
13061;SDS011;6597;52.218;9.882;2023-11-19T08:15:21;15.27;;;4.07;;
13061;SDS011;6597;52.218;9.882;2023-11-19T08:17:48;11.90;;;3.87;;
13061;SDS011;6597;52.218;9.882;2023-11-19T08:20:14;17.50;;;4.03;;
13061;SDS011;6597;52.218;9.882;2023-11-19T08:22:41;18.43;;;4.13;;
13061;SDS011;6597;52.218;9.882;2023-11-19T08:25:08;15.27;;;4.17;;
13061;SDS011;6597;52.218;9.882;2023-11-19T08:27:34;18.03;;;4.30;;
13061;SDS011;6597;52.218;9.882;2023-11-19T08:30:03;14.80;;;4.30;;
13061;SDS011;6597;52.218;9.882;2023-11-19T08:32:31;17.33;;;4.47;;
13061;SDS011;6597;52.218;9.882;2023-11-19T08:34:57;20.07;;;3.80;;
13061;SDS011;6597;52.218;9.882;2023-11-19T08:37:24;15.03;;;4.63;;
13061;SDS011;6597;52.218;9.882;2023-11-19T08:39:51;21.10;;;4.60;;
13061;SDS011;6597;52.218;9.882;2023-11-19T08:42:17;18.87;;;4.50;;
13061;SDS011;6597;52.218;9.882;2023-11-19T08:44:48;22.30;;;4.57;;
13061;SDS011;6597;52.218;9.882;2023-11-19T08:47:16;22.60;;;4.53;;
13061;SDS011;6597;52.218;9.882;2023-11-19T08:49:44;18.00;;;4.40;;
13061;SDS011;6597;52.218;9.882;2023-11-19T08:52:10;21.73;;;4.10;;
13061;SDS011;6597;52.218;9.882;2023-11-19T08:54:37;16.40;;;4.33;;
13061;SDS011;6597;52.218;9.882;2023-11-19T08:57:04;21.27;;;4.43;;
13061;SDS011;6597;52.218;9.882;2023-11-19T08:59:32;24.87;;;4.40;;
13061;SDS011;6597;52.218;9.882;2023-11-19T09:01:59;17.43;;;4.30;;
13061;SDS011;6597;52.218;9.882;2023-11-19T09:04:27;16.97;;;4.30;;
13061;SDS011;6597;52.218;9.882;2023-11-19T09:06:53;20.27;;;3.93;;
13061;SDS011;6597;52.218;9.882;2023-11-19T09:09:20;23.47;;;4.63;;
13061;SDS011;6597;52.218;9.882;2023-11-19T09:11:48;18.70;;;4.17;;
13061;SDS011;6597;52.218;9.882;2023-11-19T09:14:15;20.30;;;4.27;;
13061;SDS011;6597;52.218;9.882;2023-11-19T09:16:43;23.17;;;4.83;;
13061;SDS011;6597;52.218;9.882;2023-11-19T09:19:10;14.20;;;3.87;;
13061;SDS011;6597;52.218;9.882;2023-11-19T09:21:37;22.07;;;4.17;;
13061;SDS011;6597;52.218;9.882;2023-11-19T09:24:04;24.33;;;4.57;;
13061;SDS011;6597;52.218;9.882;2023-11-19T09:26:32;14.17;;;3.73;;
13061;SDS011;6597;52.218;9.882;2023-11-19T09:28:59;22.67;;;4.10;;
13061;SDS011;6597;52.218;9.882;2023-11-19T09:31:26;18.97;;;3.40;;
13061;SDS011;6597;52.218;9.882;2023-11-19T09:33:52;21.90;;;4.20;;
13061;SDS011;6597;52.218;9.882;2023-11-19T09:36:19;15.00;;;3.90;;
13061;SDS011;6597;52.218;9.882;2023-11-19T09:38:46;15.80;;;3.47;;
13061;SDS011;6597;52.218;9.882;2023-11-19T09:41:13;21.60;;;4.67;;
13061;SDS011;6597;52.218;9.882;2023-11-19T09:43:39;18.00;;;3.73;;
13061;SDS011;6597;52.218;9.882;2023-11-19T09:46:09;16.57;;;4.53;;
13061;SDS011;6597;52.218;9.882;2023-11-19T09:48:37;25.37;;;3.93;;
13061;SDS011;6597;52.218;9.882;2023-11-19T09:51:06;20.97;;;3.93;;
13061;SDS011;6597;52.218;9.882;2023-11-19T09:53:34;18.40;;;3.83;;
13061;SDS011;6597;52.218;9.882;2023-11-19T09:56:03;23.97;;;4.90;;
13061;SDS011;6597;52.218;9.882;2023-11-19T09:58:33;16.80;;;4.10;;
13061;SDS011;6597;52.218;9.882;2023-11-19T10:01:00;19.83;;;4.03;;
13061;SDS011;6597;52.218;9.882;2023-11-19T10:03:28;15.87;;;3.80;;
13061;SDS011;6597;52.218;9.882;2023-11-19T10:05:59;14.60;;;3.80;;
13061;SDS011;6597;52.218;9.882;2023-11-19T10:08:27;22.23;;;4.57;;
13061;SDS011;6597;52.218;9.882;2023-11-19T10:10:54;23.10;;;4.17;;
13061;SDS011;6597;52.218;9.882;2023-11-19T10:13:23;19.97;;;3.60;;
13061;SDS011;6597;52.218;9.882;2023-11-19T10:15:52;22.10;;;4.83;;
13061;SDS011;6597;52.218;9.882;2023-11-19T10:18:21;18.07;;;3.67;;
13061;SDS011;6597;52.218;9.882;2023-11-19T10:20:50;22.10;;;4.00;;
13061;SDS011;6597;52.218;9.882;2023-11-19T10:23:16;23.27;;;4.63;;
13061;SDS011;6597;52.218;9.882;2023-11-19T10:25:43;18.07;;;4.07;;
13061;SDS011;6597;52.218;9.882;2023-11-19T10:28:09;27.60;;;4.67;;
13061;SDS011;6597;52.218;9.882;2023-11-19T10:30:37;22.27;;;4.47;;
13061;SDS011;6597;52.218;9.882;2023-11-19T10:33:04;22.60;;;4.37;;
13061;SDS011;6597;52.218;9.882;2023-11-19T10:35:32;18.93;;;3.80;;
13061;SDS011;6597;52.218;9.882;2023-11-19T10:37:59;12.17;;;3.77;;
13061;SDS011;6597;52.218;9.882;2023-11-19T10:40:37;10.03;;;3.43;;
13061;SDS011;6597;52.218;9.882;2023-11-19T10:43:05;13.47;;;3.57;;
13061;SDS011;6597;52.218;9.882;2023-11-19T10:45:33;18.47;;;4.23;;
13061;SDS011;6597;52.218;9.882;2023-11-19T10:48:01;15.60;;;4.60;;
13061;SDS011;6597;52.218;9.882;2023-11-19T10:50:31;11.73;;;3.93;;
13061;SDS011;6597;52.218;9.882;2023-11-19T10:52:57;14.83;;;3.30;;
13061;SDS011;6597;52.218;9.882;2023-11-19T10:55:26;22.37;;;4.23;;
13061;SDS011;6597;52.218;9.882;2023-11-19T10:57:55;14.23;;;3.60;;
13061;SDS011;6597;52.218;9.882;2023-11-19T11:00:24;13.47;;;3.40;;
13061;SDS011;6597;52.218;9.882;2023-11-19T11:02:54;18.40;;;4.30;;
13061;SDS011;6597;52.218;9.882;2023-11-19T11:05:23;14.77;;;4.53;;
13061;SDS011;6597;52.218;9.882;2023-11-19T11:07:52;11.70;;;3.47;;
13061;SDS011;6597;52.218;9.882;2023-11-19T11:10:21;11.57;;;4.10;;
13061;SDS011;6597;52.218;9.882;2023-11-19T11:12:52;16.23;;;3.77;;
13061;SDS011;6597;52.218;9.882;2023-11-19T11:15:24;15.23;;;4.33;;
13061;SDS011;6597;52.218;9.882;2023-11-19T11:17:53;13.30;;;3.70;;
13061;SDS011;6597;52.218;9.882;2023-11-19T11:20:28;23.03;;;4.53;;
13061;SDS011;6597;52.218;9.882;2023-11-19T11:22:59;17.50;;;4.00;;
13061;SDS011;6597;52.218;9.882;2023-11-19T11:25:43;18.63;;;3.90;;
13061;SDS011;6597;52.218;9.882;2023-11-19T11:28:21;14.30;;;3.23;;
13061;SDS011;6597;52.218;9.882;2023-11-19T11:31:01;19.60;;;3.97;;
13061;SDS011;6597;52.218;9.882;2023-11-19T11:33:57;18.33;;;4.57;;
13061;SDS011;6597;52.218;9.882;2023-11-19T11:36:34;17.27;;;4.23;;
13061;SDS011;6597;52.218;9.882;2023-11-19T11:39:11;22.47;;;4.60;;
13061;SDS011;6597;52.218;9.882;2023-11-19T11:41:38;17.77;;;4.37;;
13061;SDS011;6597;52.218;9.882;2023-11-19T11:44:05;18.50;;;5.00;;
13061;SDS011;6597;52.218;9.882;2023-11-19T11:49:27;26.10;;;5.27;;
13061;SDS011;6597;52.218;9.882;2023-11-19T11:51:59;17.10;;;4.53;;
13061;SDS011;6597;52.218;9.882;2023-11-19T11:54:29;14.77;;;4.87;;
13061;SDS011;6597;52.218;9.882;2023-11-19T11:57:04;17.13;;;4.13;;
13061;SDS011;6597;52.218;9.882;2023-11-19T11:59:45;21.37;;;4.83;;
13061;SDS011;6597;52.218;9.882;2023-11-19T12:02:14;15.83;;;4.40;;
13061;SDS011;6597;52.218;9.882;2023-11-19T12:04:42;20.87;;;4.47;;
13061;SDS011;6597;52.218;9.882;2023-11-19T12:07:13;17.40;;;4.83;;
13061;SDS011;6597;52.218;9.882;2023-11-19T12:09:42;16.53;;;4.40;;
13061;SDS011;6597;52.218;9.882;2023-11-19T12:12:17;16.63;;;4.47;;
13061;SDS011;6597;52.218;9.882;2023-11-19T12:15:03;22.70;;;5.03;;
13061;SDS011;6597;52.218;9.882;2023-11-19T12:17:41;18.00;;;4.57;;
13061;SDS011;6597;52.218;9.882;2023-11-19T12:20:10;14.97;;;4.00;;
13061;SDS011;6597;52.218;9.882;2023-11-19T12:22:38;20.63;;;4.77;;
13061;SDS011;6597;52.218;9.882;2023-11-19T12:25:06;26.03;;;4.30;;
13061;SDS011;6597;52.218;9.882;2023-11-19T12:27:34;16.40;;;4.07;;
13061;SDS011;6597;52.218;9.882;2023-11-19T12:30:02;25.17;;;4.63;;
13061;SDS011;6597;52.218;9.882;2023-11-19T12:32:37;16.83;;;4.57;;
13061;SDS011;6597;52.218;9.882;2023-11-19T12:35:04;22.87;;;4.93;;
13061;SDS011;6597;52.218;9.882;2023-11-19T12:37:31;21.10;;;4.27;;
13061;SDS011;6597;52.218;9.882;2023-11-19T12:39:59;19.90;;;4.43;;
13061;SDS011;6597;52.218;9.882;2023-11-19T12:42:34;11.80;;;4.20;;
13061;SDS011;6597;52.218;9.882;2023-11-19T12:45:01;24.70;;;4.83;;
13061;SDS011;6597;52.218;9.882;2023-11-19T12:47:29;16.27;;;4.00;;
13061;SDS011;6597;52.218;9.882;2023-11-19T12:49:56;23.50;;;4.40;;
13061;SDS011;6597;52.218;9.882;2023-11-19T12:52:22;20.10;;;4.60;;
13061;SDS011;6597;52.218;9.882;2023-11-19T12:54:49;19.93;;;4.20;;
13061;SDS011;6597;52.218;9.882;2023-11-19T12:57:17;27.47;;;4.63;;
13061;SDS011;6597;52.218;9.882;2023-11-19T12:59:54;16.83;;;4.30;;
13061;SDS011;6597;52.218;9.882;2023-11-19T13:02:21;23.00;;;4.57;;
13061;SDS011;6597;52.218;9.882;2023-11-19T13:04:48;21.50;;;4.80;;
13061;SDS011;6597;52.218;9.882;2023-11-19T13:07:20;13.83;;;3.77;;
13061;SDS011;6597;52.218;9.882;2023-11-19T13:09:46;19.30;;;4.53;;
13061;SDS011;6597;52.218;9.882;2023-11-19T13:12:13;21.03;;;4.27;;
13061;SDS011;6597;52.218;9.882;2023-11-19T13:14:43;20.33;;;4.07;;
13061;SDS011;6597;52.218;9.882;2023-11-19T13:17:15;22.90;;;5.10;;
13061;SDS011;6597;52.218;9.882;2023-11-19T13:19:42;19.23;;;4.13;;
13061;SDS011;6597;52.218;9.882;2023-11-19T13:22:08;23.10;;;4.07;;
13061;SDS011;6597;52.218;9.882;2023-11-19T13:24:35;14.80;;;3.90;;
13061;SDS011;6597;52.218;9.882;2023-11-19T13:27:02;17.10;;;3.97;;
13061;SDS011;6597;52.218;9.882;2023-11-19T13:29:29;16.83;;;4.27;;
13061;SDS011;6597;52.218;9.882;2023-11-19T13:31:57;15.10;;;3.77;;
13061;SDS011;6597;52.218;9.882;2023-11-19T13:34:25;18.90;;;4.23;;
13061;SDS011;6597;52.218;9.882;2023-11-19T13:36:51;15.30;;;3.93;;
13061;SDS011;6597;52.218;9.882;2023-11-19T13:39:18;17.10;;;4.50;;
13061;SDS011;6597;52.218;9.882;2023-11-19T13:41:48;17.53;;;4.20;;
13061;SDS011;6597;52.218;9.882;2023-11-19T13:44:15;18.10;;;4.27;;
13061;SDS011;6597;52.218;9.882;2023-11-19T13:46:44;23.83;;;4.67;;
13061;SDS011;6597;52.218;9.882;2023-11-19T13:49:12;22.50;;;4.63;;
13061;SDS011;6597;52.218;9.882;2023-11-19T13:51:38;20.30;;;4.37;;
13061;SDS011;6597;52.218;9.882;2023-11-19T13:54:05;20.03;;;4.50;;
13061;SDS011;6597;52.218;9.882;2023-11-19T13:56:32;22.47;;;4.27;;
13061;SDS011;6597;52.218;9.882;2023-11-19T13:58:58;15.57;;;5.33;;
13061;SDS011;6597;52.218;9.882;2023-11-19T14:01:25;19.57;;;4.40;;
13061;SDS011;6597;52.218;9.882;2023-11-19T14:03:52;20.30;;;4.40;;
13061;SDS011;6597;52.218;9.882;2023-11-19T14:06:20;26.77;;;4.90;;
13061;SDS011;6597;52.218;9.882;2023-11-19T14:08:47;17.80;;;4.20;;
13061;SDS011;6597;52.218;9.882;2023-11-19T14:11:13;20.60;;;5.00;;
13061;SDS011;6597;52.218;9.882;2023-11-19T14:13:40;25.97;;;5.07;;
13061;SDS011;6597;52.218;9.882;2023-11-19T14:16:07;19.37;;;5.30;;
13061;SDS011;6597;52.218;9.882;2023-11-19T14:18:34;21.97;;;4.83;;
13061;SDS011;6597;52.218;9.882;2023-11-19T14:21:01;19.23;;;4.47;;
13061;SDS011;6597;52.218;9.882;2023-11-19T14:23:30;21.03;;;5.27;;
13061;SDS011;6597;52.218;9.882;2023-11-19T14:25:56;20.17;;;4.87;;
13061;SDS011;6597;52.218;9.882;2023-11-19T14:28:23;21.83;;;5.37;;
13061;SDS011;6597;52.218;9.882;2023-11-19T14:30:51;18.87;;;4.57;;
13061;SDS011;6597;52.218;9.882;2023-11-19T14:33:22;12.77;;;4.00;;
13061;SDS011;6597;52.218;9.882;2023-11-19T14:35:48;14.70;;;4.07;;
13061;SDS011;6597;52.218;9.882;2023-11-19T14:38:15;16.80;;;4.43;;
13061;SDS011;6597;52.218;9.882;2023-11-19T14:40:43;14.90;;;4.17;;
13061;SDS011;6597;52.218;9.882;2023-11-19T14:43:09;22.87;;;4.50;;
13061;SDS011;6597;52.218;9.882;2023-11-19T14:45:36;22.73;;;5.23;;
13061;SDS011;6597;52.218;9.882;2023-11-19T14:48:03;14.67;;;3.90;;
13061;SDS011;6597;52.218;9.882;2023-11-19T14:50:30;26.20;;;4.70;;
13061;SDS011;6597;52.218;9.882;2023-11-19T14:52:56;17.50;;;4.40;;
13061;SDS011;6597;52.218;9.882;2023-11-19T14:55:23;14.07;;;4.40;;
13061;SDS011;6597;52.218;9.882;2023-11-19T14:57:52;16.50;;;5.10;;
13061;SDS011;6597;52.218;9.882;2023-11-19T15:00:19;17.57;;;5.10;;